Aroma, Missouri
Current Conditions -  °F | °C
As of 6:35 PM on Monday 24 Nov 2014 (Local Time) from KHFJ Reporting Station
Clear Clear  
Wind Chill:   Ceiling: Unl
Heat Index:   Visibility: 10mi
Dew Point: -3°   Wind: 12mph
Humidity: 57%   Direction: 290°WNW
Pressure: 29.98"   Gusts: NA
Location:  36.8998°N, 94.263°W
Report Text: KHFJ 250035Z AUTO 29010KT 10SM CLR 05/M03 A2998 RMK AO2
Loading
Personal Weather Stations






























Interactive Weather Map New forecast layout! Learn more

10-Day Weather Forecast

Advertisements
Track Severe Weather on mobile